Regional Weather

 

KCRX - Corinth, Mississippi, USA
Distance from station: SW 29mi, 47km
Updated: Tue, 16-Jul-2019 7:35am CDT
Overcast
Overcast
 Wind from S
Wind: S 8 mph , 13 km/h, Gust: 14 mph , 22 km/h
Temperature: 77°F , 25°C
Dew Point: 73°F , 23°C
Humidity: 89%
Barometer: 30.04 inHg , 1017.3 hPa
Clouds: Overcast
Visibility: 9 miles , 14 km
Cloud details: Mostly cloudy 1200 ft
Overcast 1800 ft
2019/07/16 12:35 KCRX 161235Z AUTO 17007G12KT 9SM BKN012 OVC018 25/23 A3004 RMK AO2
KMKL - Jackson, Tennessee, USA
Distance from station: NW 46mi, 73km
Updated: Tue, 16-Jul-2019 7:37am CDT
Light rain, Mist, Overcast
Light rain, Mist, Overcast
 Wind from calm
Wind: Calm
Temperature: 72°F , 22°C
Dew Point: 72°F , 22°C
Humidity: 100%
Barometer: 30.01 inHg , 1016.3 hPa
Summary: Light rain, Mist
Clouds: Overcast
Visibility: 3 miles , 5 km
Cloud details: Few Clouds 600 ft
Mostly cloudy 2400 ft
Overcast 3500 ft
2019/07/16 12:37 KMKL 161237Z 00000KT 3SM -RA BR FEW006 BKN024 OVC035 22/22 A3001 RMK AO2 TSE01 P0074 T02220222
 
KMSL - Muscle Shoal, Alabama, USA
Distance from station: SE 49mi, 79km
Updated: Tue, 16-Jul-2019 6:53am CDT
Clear
Clear
 Wind from SSW
Wind: SSW 9 mph , 15 km/h
Temperature: 79°F , 26°C
Dew Point: 73°F , 23°C
Humidity: 84%
Barometer: 30.08 inHg , 1018.6 hPa
Clouds: Clear
Visibility: 10 miles , 16 km
2019/07/16 11:53 KMSL 161153Z AUTO 20008KT 10SM CLR 26/23 A3008 RMK AO2 SLP179 70007 T02560228 10256 20239 51012
KTUP - Tupelo, Mississippi, USA
Distance from station: SSW 72mi, 117km
Updated: Tue, 16-Jul-2019 7:04am CDT
Mostly cloudy
Mostly cloudy
 Wind from S
Wind: S 10 mph , 17 km/h
Temperature: 77°F , 25°C
Dew Point: 73°F , 23°C
Humidity: 89%
Barometer: 30.05 inHg , 1017.6 hPa
Clouds: Mostly cloudy
Visibility: 10 miles , 16 km
Cloud details: Mostly cloudy 1200 ft
2019/07/16 12:04 KTUP 161204Z 19009KT 10SM BKN012 25/23 A3005 RMK AO2 T02500228 $
 
KHSV - Huntsville, Alabama, USA
Distance from station: ESE 92mi, 148km
Updated: Tue, 16-Jul-2019 7:45am CDT
Mostly cloudy
Mostly cloudy
 Wind from S
Wind: S 8 mph , 13 km/h
Temperature: 75°F , 24°C
Dew Point: 73°F , 23°C
Humidity: 94%
Barometer: 30.12 inHg , 1020 hPa
Clouds: Mostly cloudy
Visibility: 10 miles , 16 km
Cloud details: Partly cloudy 1100 ft
Mostly cloudy 1700 ft
2019/07/16 12:45 KHSV 161245Z 19007KT 10SM SCT011 BKN017 24/23 A3012 RMK AO2 T02440228 $
KBNA - Nashville, TN, USA
Distance from station: NE 97mi, 157km
Updated: Tue, 16-Jul-2019 7:08am CDT
Mostly cloudy
Mostly cloudy
 Wind from S
Wind: S 8 mph , 13 km/h
Temperature: 77°F , 25°C
Dew Point: 72°F , 22°C
Humidity: 83%
Barometer: 30.09 inHg , 1019 hPa
Clouds: Mostly cloudy
Visibility: 10 miles , 16 km
Cloud details: Mostly cloudy 1700 ft
Mostly cloudy 25000 ft
2019/07/16 12:08 KBNA 161208Z 18007KT 10SM BKN017 BKN250 25/22 A3009 RMK AO2 T02500217
 
KMEM - Memphis, Tennessee, USA
Distance from station: W 99mi, 159km
Updated: Tue, 16-Jul-2019 7:19am CDT
Light rain, Overcast
Light rain, Overcast
 Wind from S
Wind: S 15 mph , 24 km/h, Gust: 25 mph , 41 km/h
Temperature: 77°F , 25°C
Dew Point: 75°F , 24°C
Humidity: 94%
Barometer: 29.96 inHg , 1014.6 hPa
Summary: Light rain
Clouds: Overcast
Visibility: 10 miles , 16 km
Cloud details: Mostly cloudy 1200 ft
Overcast 2000 ft
2019/07/16 12:19 KMEM 161219Z 19013G22KT 10SM -RA BKN012 OVC020 25/24 A2996 RMK AO2 P0019 T02500244 $
KCKV - Clarksville, TN, USA
Distance from station: NNE 99mi, 159km
Updated: Tue, 16-Jul-2019 6:52am CDT
Overcast
Overcast
 Wind from S
Wind: S 10 mph , 17 km/h, Gust: 16 mph , 26 km/h
Temperature: 77°F , 25°C
Dew Point: 72°F , 22°C
Humidity: 83%
Barometer: 30.03 inHg , 1016.9 hPa
Clouds: Overcast
Visibility: 10 miles , 16 km
Cloud details: Overcast 1700 ft
2019/07/16 11:52 KCKV 161152Z AUTO 18009G14KT 10SM OVC017 25/22 A3003 RMK AO2 SLP162 70007 T02500222 10256 20239 53013
 
KCHA - Chattanooga, TN, USA
Distance from station: E 165mi, 265km
Updated: Tue, 16-Jul-2019 6:53am CDT
Mostly cloudy
Mostly cloudy
 Wind from calm
Wind: Calm
Temperature: 75°F , 24°C
Dew Point: 73°F , 23°C
Humidity: 94%
Barometer: 30.14 inHg , 1020.7 hPa
Clouds: Mostly cloudy
Visibility: 10 miles , 16 km
Cloud details: Few Clouds 14000 ft
Mostly cloudy 21000 ft
Mostly cloudy 25000 ft
2019/07/16 11:53 KCHA 161153Z 00000KT 10SM FEW140 BKN210 BKN250 24/23 A3014 RMK AO2 SLP197 T02440228 10261 20239 53014
KTYS - Knoxville, TN, USA
Distance from station: E 234mi, 377km
Updated: Tue, 16-Jul-2019 6:53am CDT
Mostly cloudy
Mostly cloudy
 Wind from calm
Wind: Calm
Temperature: 75°F , 24°C
Dew Point: 70°F , 21°C
Humidity: 83%
Barometer: 30.14 inHg , 1020.7 hPa
Clouds: Mostly cloudy
Visibility: 10 miles , 16 km
Cloud details: Partly cloudy 15000 ft
Mostly cloudy 25000 ft
2019/07/16 11:53 KTYS 161153Z 00000KT 10SM SCT150 BKN250 24/21 A3014 RMK AO2 SLP195 T02390211 10239 20228 53014

Refresh Page for latest data.